createdAt,value
2019-03-03T00:00:23.470Z,95.75
2019-03-03T00:02:50.628Z,102.45
2019-03-03T00:05:17.187Z,103.70
2019-03-03T00:07:43.538Z,110.65
2019-03-03T00:10:12.588Z,107.20
2019-03-03T00:12:38.871Z,99.97
2019-03-03T00:15:08.771Z,103.70
2019-03-03T00:17:35.199Z,100.20
2019-03-03T00:20:02.828Z,116.17
2019-03-03T00:22:29.156Z,105.27
2019-03-03T00:24:55.492Z,102.90
2019-03-03T00:27:21.821Z,100.15
2019-03-03T00:29:48.239Z,85.80
2019-03-03T00:32:14.922Z,90.40
2019-03-03T00:34:41.311Z,112.80
2019-03-03T00:37:12.669Z,113.40
2019-03-03T00:39:41.772Z,108.97
2019-03-03T00:42:26.715Z,104.05
2019-03-03T00:45:02.078Z,80.72
2019-03-03T00:47:33.657Z,67.65
2019-03-03T00:50:19.992Z,73.28
2019-03-03T00:52:48.610Z,65.62
2019-03-03T00:55:34.063Z,70.15
2019-03-03T00:58:02.420Z,65.50
2019-03-03T01:00:30.949Z,63.75
2019-03-03T01:02:59.145Z,60.10
2019-03-03T01:05:27.394Z,55.50
2019-03-03T01:08:12.638Z,64.47
2019-03-03T01:10:41.075Z,66.92
2019-03-03T01:13:11.889Z,56.75
2019-03-03T01:15:38.459Z,64.03
2019-03-03T01:18:07.629Z,54.70
2019-03-03T01:20:34.053Z,57.40
2019-03-03T01:23:15.440Z,56.37
2019-03-03T01:25:41.882Z,64.47
2019-03-03T01:28:08.322Z,73.85
2019-03-03T01:30:34.746Z,73.37
2019-03-03T01:33:01.191Z,63.60
2019-03-03T01:35:27.611Z,69.00
2019-03-03T01:37:53.918Z,63.90
2019-03-03T01:40:20.172Z,63.40
2019-03-03T01:42:46.662Z,59.00
2019-03-03T01:45:14.107Z,55.75
2019-03-03T01:47:40.604Z,57.98
2019-03-03T01:50:11.576Z,60.63
2019-03-03T01:52:38.373Z,59.25
2019-03-03T01:55:09.538Z,58.28
2019-03-03T01:57:36.252Z,56.25
2019-03-03T02:00:17.619Z,53.98
2019-03-03T02:02:44.135Z,52.78
2019-03-03T02:05:10.424Z,48.75
2019-03-03T02:07:39.738Z,46.08
2019-03-03T02:10:08.347Z,44.48
2019-03-03T02:12:34.843Z,46.35
2019-03-03T02:15:01.453Z,47.93
2019-03-03T02:17:27.886Z,47.93
2019-03-03T02:19:54.256Z,46.92
2019-03-03T02:22:20.643Z,45.75
2019-03-03T02:24:46.971Z,48.30
2019-03-03T02:27:14.028Z,47.05
2019-03-03T02:29:40.367Z,43.58
2019-03-03T02:32:06.984Z,46.77
2019-03-03T02:34:33.637Z,44.38
2019-03-03T02:36:59.965Z,41.90
2019-03-03T02:39:28.102Z,42.20
2019-03-03T02:41:54.527Z,41.13
2019-03-03T02:44:20.983Z,44.20
2019-03-03T02:46:47.268Z,48.48
2019-03-03T02:49:13.660Z,42.75
2019-03-03T02:51:40.201Z,41.42
2019-03-03T02:54:08.360Z,41.63
2019-03-03T02:56:34.711Z,37.42
2019-03-03T02:59:01.360Z,39.30
2019-03-03T03:01:29.538Z,41.85
2019-03-03T03:03:55.959Z,44.70
2019-03-03T03:06:24.100Z,46.25
2019-03-03T03:09:08.885Z,41.50
2019-03-03T03:11:37.324Z,44.13
2019-03-03T03:14:05.669Z,45.35
2019-03-03T03:16:37.987Z,37.53
2019-03-03T03:19:06.397Z,46.75
2019-03-03T03:21:37.424Z,43.52
2019-03-03T03:24:19.405Z,42.10
2019-03-03T03:26:59.486Z,40.35
2019-03-03T03:29:35.040Z,43.80
2019-03-03T03:32:06.667Z,42.30
2019-03-03T03:34:37.745Z,40.90
2019-03-03T03:37:06.231Z,41.10
2019-03-03T03:39:43.386Z,42.53
2019-03-03T03:42:17.749Z,39.83
2019-03-03T03:45:02.664Z,46.68
2019-03-03T03:47:31.117Z,41.50
2019-03-03T03:50:02.110Z,41.63
2019-03-03T03:52:31.743Z,44.58
2019-03-03T03:55:01.270Z,45.83
2019-03-03T03:57:32.728Z,46.15
2019-03-03T04:00:19.380Z,43.25
2019-03-03T04:03:04.732Z,40.30
2019-03-03T04:05:50.329Z,42.45
2019-03-03T04:08:29.129Z,43.40
2019-03-03T04:10:57.469Z,45.45
2019-03-03T04:13:34.925Z,44.67
2019-03-03T04:16:13.339Z,43.80
2019-03-03T04:18:45.008Z,42.45
2019-03-03T04:21:19.805Z,45.05
2019-03-03T04:23:58.113Z,49.90
2019-03-03T04:26:30.512Z,41.23
2019-03-03T04:28:58.707Z,42.25
2019-03-03T04:31:38.976Z,42.05
2019-03-03T04:34:07.231Z,42.33
2019-03-03T04:36:52.380Z,43.78
2019-03-03T04:39:20.784Z,43.02
2019-03-03T04:41:47.105Z,43.95
2019-03-03T04:44:33.204Z,44.00
2019-03-03T04:47:17.772Z,45.25
2019-03-03T04:49:46.076Z,43.68
2019-03-03T04:52:14.265Z,42.85
2019-03-03T04:54:40.725Z,46.25
2019-03-03T04:57:12.866Z,47.58
2019-03-03T04:59:41.306Z,40.92
2019-03-03T05:02:12.309Z,42.17
2019-03-03T05:04:43.481Z,43.17
2019-03-03T05:07:14.678Z,44.95
2019-03-03T05:09:43.708Z,44.75
2019-03-03T05:12:15.807Z,43.42
2019-03-03T05:14:43.472Z,52.83
2019-03-03T05:17:25.318Z,41.95
2019-03-03T05:19:59.852Z,47.00
2019-03-03T05:22:26.655Z,43.87
2019-03-03T05:24:52.993Z,46.40
2019-03-03T05:27:19.382Z,47.15
2019-03-03T05:29:45.882Z,50.92
2019-03-03T05:32:12.161Z,44.38
2019-03-03T05:34:38.483Z,42.03
2019-03-03T05:37:04.850Z,46.88
2019-03-03T05:39:31.414Z,52.08
2019-03-03T05:41:57.902Z,50.80
2019-03-03T05:44:24.540Z,47.45
2019-03-03T05:46:50.967Z,48.98
2019-03-03T05:49:17.377Z,44.95
2019-03-03T05:51:43.774Z,51.40
2019-03-03T05:54:10.187Z,44.90
2019-03-03T05:56:36.636Z,46.80
2019-03-03T05:59:03.164Z,47.20
2019-03-03T06:01:29.512Z,47.80
2019-03-03T06:03:56.038Z,58.83
2019-03-03T06:06:22.396Z,50.12
2019-03-03T06:08:49.010Z,49.75
2019-03-03T06:11:15.413Z,48.10
2019-03-03T06:13:41.965Z,54.70
2019-03-03T06:16:08.363Z,56.13
2019-03-03T06:18:34.807Z,52.70
2019-03-03T06:21:01.175Z,51.25
2019-03-03T06:23:27.578Z,51.63
2019-03-03T06:25:53.865Z,50.20
2019-03-03T06:28:20.573Z,48.00
2019-03-03T06:30:47.118Z,45.38
2019-03-03T06:33:13.645Z,54.93
2019-03-03T06:35:42.125Z,49.63
2019-03-03T06:38:08.432Z,48.83
2019-03-03T06:40:34.972Z,54.93
2019-03-03T06:43:01.467Z,46.75
2019-03-03T06:45:29.535Z,49.88
2019-03-03T06:47:56.542Z,45.67
2019-03-03T06:50:24.172Z,46.37
2019-03-03T06:52:50.462Z,44.88
2019-03-03T06:55:16.901Z,47.27
2019-03-03T06:57:43.191Z,51.53
2019-03-03T07:00:14.071Z,44.70
2019-03-03T07:02:40.673Z,47.70
2019-03-03T07:05:09.180Z,43.00
2019-03-03T07:07:35.893Z,44.00
2019-03-03T07:10:03.419Z,43.50
2019-03-03T07:12:29.848Z,46.33
2019-03-03T07:14:56.692Z,40.28
2019-03-03T07:17:23.168Z,39.45
2019-03-03T07:19:49.558Z,42.75
2019-03-03T07:22:16.135Z,42.88
2019-03-03T07:24:42.426Z,44.30
2019-03-03T07:27:08.945Z,41.58
2019-03-03T07:29:35.275Z,45.95
2019-03-03T07:32:01.585Z,40.05
2019-03-03T07:34:28.089Z,45.48
2019-03-03T07:36:54.579Z,46.25
2019-03-03T07:39:21.366Z,45.63
2019-03-03T07:41:47.901Z,40.45
2019-03-03T07:44:14.440Z,39.50
2019-03-03T07:46:40.747Z,44.10
2019-03-03T07:49:07.300Z,44.63
2019-03-03T07:51:33.595Z,43.33
2019-03-03T07:54:00.064Z,44.45
2019-03-03T07:56:26.496Z,39.23
2019-03-03T07:58:53.447Z,40.23
2019-03-03T08:01:19.763Z,40.73
2019-03-03T08:03:46.128Z,41.68
2019-03-03T08:06:12.473Z,36.98
2019-03-03T08:08:38.966Z,39.45
2019-03-03T08:11:05.459Z,40.30
2019-03-03T08:13:31.935Z,42.93
2019-03-03T08:15:58.336Z,41.88
2019-03-03T08:18:24.671Z,40.78
2019-03-03T08:20:50.967Z,41.92
2019-03-03T08:23:17.305Z,39.48
2019-03-03T08:25:43.504Z,40.30
2019-03-03T08:28:09.904Z,39.95
2019-03-03T08:30:36.581Z,37.80
2019-03-03T08:33:03.117Z,39.75
2019-03-03T08:35:31.673Z,41.68
2019-03-03T08:37:58.302Z,43.20
2019-03-03T08:40:24.727Z,41.65
2019-03-03T08:42:55.833Z,41.42
2019-03-03T08:45:34.188Z,43.33
2019-03-03T08:48:02.454Z,41.40
2019-03-03T08:50:30.681Z,47.15
2019-03-03T08:53:01.501Z,37.85
2019-03-03T08:55:46.601Z,46.05
2019-03-03T08:58:15.766Z,45.12
2019-03-03T09:00:46.830Z,49.85
2019-03-03T09:03:32.505Z,44.18
2019-03-03T09:06:03.622Z,40.77
2019-03-03T09:08:34.567Z,48.05
2019-03-03T09:11:19.355Z,40.90
2019-03-03T09:13:47.498Z,44.60
2019-03-03T09:16:15.966Z,47.48
2019-03-03T09:18:44.325Z,44.03
2019-03-03T09:21:15.301Z,44.23
2019-03-03T09:24:01.819Z,43.55
2019-03-03T09:26:47.073Z,43.20
2019-03-03T09:29:15.456Z,44.20
2019-03-03T09:31:52.437Z,40.15
2019-03-03T09:34:21.583Z,41.02
2019-03-03T09:36:52.783Z,37.65
2019-03-03T09:39:21.267Z,38.45
2019-03-03T09:41:49.557Z,35.13
2019-03-03T09:44:17.771Z,39.38
2019-03-03T09:46:46.009Z,38.38
2019-03-03T09:49:14.935Z,31.30
2019-03-03T09:51:46.120Z,31.30
2019-03-03T09:54:26.355Z,32.05
2019-03-03T09:56:55.557Z,31.02
2019-03-03T09:59:21.981Z,41.15
2019-03-03T10:01:59.279Z,31.93
2019-03-03T10:04:44.039Z,28.92
2019-03-03T10:07:18.267Z,34.85
2019-03-03T10:09:52.750Z,25.80
2019-03-03T10:12:21.387Z,28.83
2019-03-03T10:15:08.100Z,25.90
2019-03-03T10:20:09.581Z,26.23
2019-03-03T10:22:37.982Z,28.80
2019-03-03T10:25:16.443Z,22.93
2019-03-03T10:28:03.167Z,28.90
2019-03-03T10:30:37.559Z,26.60
2019-03-03T10:33:23.582Z,25.35
2019-03-03T10:36:00.954Z,25.52
2019-03-03T10:38:36.347Z,26.93
2019-03-03T10:41:08.063Z,26.07
2019-03-03T10:43:52.780Z,25.55
2019-03-03T10:46:25.394Z,25.00
2019-03-03T10:49:05.630Z,24.60
2019-03-03T10:51:32.778Z,24.82
2019-03-03T10:54:01.197Z,23.75
2019-03-03T10:56:46.452Z,22.93
2019-03-03T10:59:14.936Z,23.20
2019-03-03T11:01:55.475Z,21.55
2019-03-03T11:04:42.048Z,23.15
2019-03-03T11:07:26.951Z,25.80
2019-03-03T11:09:58.118Z,28.27
2019-03-03T11:12:43.084Z,24.63
2019-03-03T11:15:18.401Z,26.57
2019-03-03T11:17:51.583Z,28.35
2019-03-03T11:20:36.815Z,26.45
2019-03-03T11:23:05.221Z,27.20
2019-03-03T11:25:36.389Z,27.77
2019-03-03T11:28:23.937Z,24.00
2019-03-03T11:30:52.465Z,24.60
2019-03-03T11:33:21.579Z,23.60
2019-03-03T11:35:53.685Z,25.12
2019-03-03T11:38:38.859Z,24.45
2019-03-03T11:41:10.168Z,24.63
2019-03-03T11:43:38.710Z,27.40
2019-03-03T11:46:14.317Z,26.12
2019-03-03T11:48:40.975Z,24.82
2019-03-03T11:51:11.865Z,24.52
2019-03-03T11:53:43.562Z,25.25
2019-03-03T11:56:11.915Z,25.90
2019-03-03T11:58:53.288Z,23.85
2019-03-03T12:01:21.721Z,22.07
2019-03-03T12:03:50.025Z,24.30
2019-03-03T12:06:22.436Z,23.98
2019-03-03T12:08:51.506Z,25.23
2019-03-03T12:11:35.393Z,23.83
2019-03-03T12:14:04.198Z,25.40
2019-03-03T12:16:32.742Z,25.43
2019-03-03T12:19:10.153Z,25.15
2019-03-03T12:21:39.247Z,27.45
2019-03-03T12:24:10.717Z,22.58
2019-03-03T12:26:56.179Z,23.62
2019-03-03T12:29:33.343Z,23.67
2019-03-03T12:32:12.496Z,22.15
2019-03-03T12:34:46.799Z,21.77
2019-03-03T12:37:33.724Z,21.95
2019-03-03T12:40:08.167Z,25.68
2019-03-03T12:42:39.297Z,24.12
2019-03-03T12:45:11.033Z,29.15
2019-03-03T12:47:37.327Z,25.82
2019-03-03T12:50:28.516Z,27.65
2019-03-03T12:53:14.153Z,24.65
2019-03-03T12:55:40.583Z,25.23
2019-03-03T12:58:25.393Z,29.18
2019-03-03T13:01:02.553Z,30.15
2019-03-03T13:03:47.239Z,25.40
2019-03-03T13:06:24.062Z,27.70
2019-03-03T13:09:01.071Z,27.52
2019-03-03T13:11:45.811Z,30.77
2019-03-03T13:14:19.933Z,29.45
2019-03-03T13:17:04.917Z,32.23
2019-03-03T13:19:43.408Z,29.20
2019-03-03T13:22:29.783Z,25.43
2019-03-03T13:25:06.800Z,25.35
2019-03-03T13:27:35.432Z,24.87
2019-03-03T13:30:06.325Z,26.05
2019-03-03T13:32:51.607Z,24.60
2019-03-03T13:35:36.480Z,22.62
2019-03-03T13:38:21.957Z,25.25
2019-03-03T13:41:03.774Z,22.82
2019-03-03T13:43:30.243Z,22.15
2019-03-03T13:45:56.729Z,22.93
2019-03-03T13:48:23.170Z,23.10
2019-03-03T13:50:49.690Z,23.90
2019-03-03T13:53:16.100Z,26.07
2019-03-03T13:55:42.604Z,22.65
2019-03-03T13:58:08.947Z,26.48
2019-03-03T14:00:35.450Z,25.55
2019-03-03T14:03:02.051Z,23.02
2019-03-03T14:05:28.795Z,22.35
2019-03-03T14:07:55.248Z,25.55
2019-03-03T14:10:22.067Z,27.55
2019-03-03T14:12:48.656Z,23.62
2019-03-03T14:15:17.875Z,28.47
2019-03-03T14:17:46.222Z,29.40
2019-03-03T14:20:17.291Z,31.12
2019-03-03T14:22:43.644Z,35.15
2019-03-03T14:25:10.476Z,32.65
2019-03-03T14:27:37.589Z,31.27
2019-03-03T14:30:11.913Z,31.95
2019-03-03T14:32:38.552Z,27.20
2019-03-03T14:35:08.586Z,29.20
2019-03-03T14:37:35.256Z,28.12
2019-03-03T14:40:03.251Z,30.25
2019-03-03T14:42:29.640Z,30.30
2019-03-03T14:44:56.290Z,27.82
2019-03-03T14:47:24.499Z,30.17
2019-03-03T14:49:53.089Z,30.60
2019-03-03T14:52:19.389Z,27.02
2019-03-03T14:54:45.751Z,30.02
2019-03-03T14:57:12.147Z,31.77
2019-03-03T14:59:38.780Z,34.25
2019-03-03T15:02:05.505Z,36.28
2019-03-03T15:04:32.055Z,30.95
2019-03-03T15:06:58.360Z,35.17
2019-03-03T15:09:24.697Z,34.75
2019-03-03T15:11:51.594Z,28.80
2019-03-03T15:14:17.934Z,27.73
2019-03-03T15:16:44.490Z,29.92
2019-03-03T15:19:10.847Z,29.05
2019-03-03T15:21:37.956Z,27.95
2019-03-03T15:24:04.361Z,26.00
2019-03-03T15:26:30.955Z,31.27
2019-03-03T15:28:57.363Z,27.90
2019-03-03T15:31:23.721Z,30.00
2019-03-03T15:33:50.387Z,29.32
2019-03-03T15:36:16.900Z,33.88
2019-03-03T15:38:43.415Z,27.10
2019-03-03T15:41:09.795Z,28.80
2019-03-03T15:43:36.327Z,27.20
2019-03-03T15:46:03.198Z,28.80
2019-03-03T15:48:29.506Z,27.77
2019-03-03T15:50:55.809Z,29.67
2019-03-03T15:53:22.315Z,29.77
2019-03-03T15:55:48.868Z,25.08
2019-03-03T15:58:15.469Z,30.52
2019-03-03T16:00:42.162Z,26.73
2019-03-03T16:03:09.587Z,26.42
2019-03-03T16:05:36.085Z,29.75
2019-03-03T16:08:02.625Z,31.80
2019-03-03T16:10:29.148Z,32.33
2019-03-03T16:12:55.838Z,31.90
2019-03-03T16:15:22.419Z,30.27
2019-03-03T16:17:49.452Z,34.78
2019-03-03T16:20:21.174Z,32.58
2019-03-03T16:22:47.934Z,29.25
2019-03-03T16:25:17.430Z,32.70
2019-03-03T16:27:43.943Z,25.77
2019-03-03T16:30:22.373Z,27.80
2019-03-03T16:32:48.897Z,29.12
2019-03-03T16:35:15.832Z,31.45
2019-03-03T16:37:42.639Z,27.55
2019-03-03T16:40:18.804Z,29.82
2019-03-03T16:45:14.417Z,30.05
2019-03-03T16:47:41.004Z,29.25
2019-03-03T16:50:15.930Z,29.02
2019-03-03T16:52:42.557Z,29.85
2019-03-03T16:55:12.057Z,28.92
2019-03-03T16:57:38.576Z,28.62
2019-03-03T17:00:10.396Z,29.23
2019-03-03T17:02:36.805Z,28.65
2019-03-03T17:05:07.733Z,27.40
2019-03-03T17:07:34.047Z,28.57
2019-03-03T17:10:00.531Z,30.70
2019-03-03T17:12:26.892Z,31.27
2019-03-03T17:14:53.299Z,34.83
2019-03-03T17:17:19.593Z,33.42
2019-03-03T17:19:46.079Z,32.55
2019-03-03T17:22:12.385Z,32.60
2019-03-03T17:24:38.988Z,30.95
2019-03-03T17:27:05.636Z,34.85
2019-03-03T17:29:32.067Z,34.30
2019-03-03T17:31:58.355Z,35.75
2019-03-03T17:34:24.889Z,37.70
2019-03-03T17:36:51.586Z,35.43
2019-03-03T17:39:18.195Z,36.23
2019-03-03T17:41:44.679Z,32.20
2019-03-03T17:44:11.113Z,37.55
2019-03-03T17:46:37.653Z,35.03
2019-03-03T17:49:03.936Z,33.45
2019-03-03T17:51:30.263Z,36.85
2019-03-03T17:53:56.617Z,36.63
2019-03-03T17:56:23.021Z,36.33
2019-03-03T17:58:49.330Z,35.00
2019-03-03T18:01:15.815Z,36.00
2019-03-03T18:03:42.229Z,36.73
2019-03-03T18:06:08.655Z,34.92
2019-03-03T18:08:34.949Z,35.95
2019-03-03T18:11:01.835Z,37.88
2019-03-03T18:13:28.246Z,38.65
2019-03-03T18:15:54.654Z,35.73
2019-03-03T18:18:21.183Z,33.20
2019-03-03T18:20:47.724Z,35.98
2019-03-03T18:23:14.163Z,37.83
2019-03-03T18:25:40.651Z,37.67
2019-03-03T18:28:07.120Z,39.83
2019-03-03T18:30:33.656Z,36.58
2019-03-03T18:33:00.090Z,36.55
2019-03-03T18:35:28.475Z,30.77
2019-03-03T18:37:55.100Z,35.63
2019-03-03T18:40:23.894Z,34.23
2019-03-03T18:42:50.448Z,34.27
2019-03-03T18:45:18.947Z,31.10
2019-03-03T18:47:45.859Z,33.75
2019-03-03T18:50:17.106Z,31.10
2019-03-03T18:52:43.431Z,29.35
2019-03-03T18:55:10.470Z,33.70
2019-03-03T18:57:37.853Z,29.48
2019-03-03T19:00:12.731Z,33.53
2019-03-03T19:02:39.502Z,28.65
2019-03-03T19:05:07.436Z,30.17
2019-03-03T19:07:34.103Z,28.27
2019-03-03T19:10:00.452Z,26.80
2019-03-03T19:12:26.868Z,26.00
2019-03-03T19:14:53.624Z,29.10
2019-03-03T19:17:19.959Z,27.82
2019-03-03T19:19:46.266Z,30.02
2019-03-03T19:22:12.732Z,32.08
2019-03-03T19:24:39.208Z,27.98
2019-03-03T19:27:05.788Z,29.70
2019-03-03T19:29:32.388Z,27.62
2019-03-03T19:31:58.860Z,29.50
2019-03-03T19:34:25.296Z,27.13
2019-03-03T19:36:51.714Z,29.20
2019-03-03T19:39:18.659Z,31.15
2019-03-03T19:41:45.095Z,31.23
2019-03-03T19:44:11.510Z,28.57
2019-03-03T19:46:38.167Z,29.15
2019-03-03T19:49:05.214Z,33.75
2019-03-03T19:51:31.856Z,26.57
2019-03-03T19:53:58.336Z,31.20
2019-03-03T19:56:24.756Z,33.65
2019-03-03T19:58:51.119Z,26.40
2019-03-03T20:01:17.478Z,24.57
2019-03-03T20:03:44.032Z,29.90
2019-03-03T20:06:10.760Z,28.95
2019-03-03T20:08:37.405Z,26.05
2019-03-03T20:11:04.178Z,24.85
2019-03-03T20:13:30.733Z,25.88
2019-03-03T20:15:57.102Z,31.52
2019-03-03T20:18:23.432Z,30.57
2019-03-03T20:20:49.838Z,25.68
2019-03-03T20:23:16.612Z,27.80
2019-03-03T20:25:43.133Z,27.15
2019-03-03T20:28:09.624Z,30.25
2019-03-03T20:30:36.971Z,29.95
2019-03-03T20:33:04.222Z,35.23
2019-03-03T20:35:30.639Z,34.78
2019-03-03T20:37:56.841Z,31.87
2019-03-03T20:40:27.308Z,25.52
2019-03-03T20:42:54.505Z,26.10
2019-03-03T20:45:24.511Z,13.25
2019-03-03T20:47:50.840Z,22.30
2019-03-03T20:50:19.438Z,19.77
2019-03-03T20:52:46.193Z,21.65
2019-03-03T20:55:15.886Z,22.45
2019-03-03T20:57:42.741Z,25.00
2019-03-03T21:00:20.893Z,19.87
2019-03-03T21:02:47.655Z,19.00
2019-03-03T21:05:14.247Z,20.05
2019-03-03T21:07:50.609Z,20.10
2019-03-03T21:10:17.312Z,20.40
2019-03-03T21:12:43.596Z,20.80
2019-03-03T21:15:11.919Z,23.85
2019-03-03T21:17:38.919Z,24.45
2019-03-03T21:20:16.363Z,23.15
2019-03-03T21:22:42.860Z,22.67
2019-03-03T21:25:12.107Z,23.25
2019-03-03T21:27:39.152Z,20.25
2019-03-03T21:30:26.388Z,25.10
2019-03-03T21:32:52.892Z,27.07
2019-03-03T21:35:19.381Z,31.85
2019-03-03T21:37:46.470Z,31.07
2019-03-03T21:40:25.147Z,25.68
2019-03-03T21:42:51.680Z,28.95
2019-03-03T21:45:20.442Z,22.20
2019-03-03T21:47:46.961Z,22.90
2019-03-03T21:50:16.062Z,22.25
2019-03-03T21:52:42.678Z,18.15
2019-03-03T21:55:11.652Z,19.37
2019-03-03T21:57:37.944Z,19.60
2019-03-03T22:00:12.935Z,23.67
2019-03-03T22:02:39.364Z,20.57
2019-03-03T22:05:05.993Z,21.77
2019-03-03T22:07:32.287Z,20.12
2019-03-03T22:09:58.691Z,23.60
2019-03-03T22:12:25.265Z,20.57
2019-03-03T22:14:51.597Z,24.80
2019-03-03T22:17:17.914Z,19.70
2019-03-03T22:19:44.374Z,23.83
2019-03-03T22:22:10.708Z,21.23
2019-03-03T22:24:37.012Z,21.42
2019-03-03T22:27:03.616Z,19.62
2019-03-03T22:29:30.107Z,26.62
2019-03-03T22:31:56.531Z,25.23
2019-03-03T22:34:22.975Z,25.27
2019-03-03T22:36:49.303Z,26.27
2019-03-03T22:39:15.702Z,21.80
2019-03-03T22:41:42.205Z,18.77
2019-03-03T22:44:08.793Z,21.17
2019-03-03T22:46:35.107Z,21.97
2019-03-03T22:49:01.544Z,21.77
2019-03-03T22:51:27.866Z,24.50
2019-03-03T22:53:54.285Z,25.17
2019-03-03T22:56:20.697Z,21.42
2019-03-03T22:58:46.898Z,23.77
2019-03-03T23:01:17.691Z,22.40
2019-03-03T23:04:29.366Z,22.13
2019-03-03T23:07:10.171Z,22.13
2019-03-03T23:10:13.561Z,21.33
2019-03-03T23:13:02.248Z,23.80
2019-03-03T23:15:46.504Z,24.27
2019-03-03T23:18:36.538Z,18.73
2019-03-03T23:21:23.745Z,19.37
2019-03-03T23:24:21.319Z,22.65
2019-03-03T23:26:47.631Z,20.97
2019-03-03T23:29:13.819Z,18.05
2019-03-03T23:31:40.263Z,21.25
2019-03-03T23:34:06.557Z,18.57
2019-03-03T23:36:33.063Z,18.50
2019-03-03T23:38:59.606Z,22.32
2019-03-03T23:41:25.949Z,20.75
2019-03-03T23:43:52.272Z,19.20
2019-03-03T23:46:18.655Z,18.75
2019-03-03T23:48:45.189Z,19.55
2019-03-03T23:51:11.571Z,18.75
2019-03-03T23:53:38.458Z,18.27
2019-03-03T23:56:04.936Z,16.12
2019-03-03T23:58:31.520Z,14.53
